createdAt,value
2019-05-10T00:00:15.296Z,987.4
2019-05-10T00:03:15.577Z,987.5
2019-05-10T00:06:15.728Z,987.5
2019-05-10T00:09:15.148Z,987.6
2019-05-10T00:12:14.881Z,987.6
2019-05-10T00:15:15.358Z,987.6
2019-05-10T00:18:15.608Z,987.6
2019-05-10T00:21:15.083Z,987.6
2019-05-10T00:24:15.439Z,987.7
2019-05-10T00:27:15.708Z,987.7
2019-05-10T00:30:15.013Z,987.7
2019-05-10T00:33:15.368Z,987.7
2019-05-10T00:36:15.613Z,987.7
2019-05-10T00:39:19.254Z,987.7
2019-05-10T00:42:15.806Z,987.7
2019-05-10T00:45:15.216Z,987.8
2019-05-10T00:48:15.544Z,987.9
2019-05-10T00:51:14.929Z,987.8
2019-05-10T00:54:15.314Z,987.9
2019-05-10T00:57:15.428Z,987.9
2019-05-10T01:00:15.749Z,987.9
2019-05-10T01:03:15.081Z,988.0
2019-05-10T01:06:15.536Z,988.0
2019-05-10T01:09:15.838Z,988.0
2019-05-10T01:12:15.119Z,988.1
2019-05-10T01:15:15.465Z,988.1
2019-05-10T01:18:15.820Z,988.1
2019-05-10T01:21:15.016Z,988.1
2019-05-10T01:24:15.585Z,988.2
2019-05-10T01:27:15.797Z,988.2
2019-05-10T01:30:15.110Z,988.2
2019-05-10T01:33:15.592Z,988.3
2019-05-10T01:36:15.860Z,988.3
2019-05-10T01:39:15.194Z,988.4
2019-05-10T01:42:15.815Z,988.4
2019-05-10T01:45:15.032Z,988.4
2019-05-10T01:48:15.542Z,988.4
2019-05-10T01:51:14.885Z,988.4
2019-05-10T01:54:15.460Z,988.5
2019-05-10T01:57:15.738Z,988.5
2019-05-10T02:00:15.085Z,988.5
2019-05-10T02:03:15.593Z,988.5
2019-05-10T02:06:14.989Z,988.6
2019-05-10T02:09:15.448Z,988.6
2019-05-10T02:12:15.692Z,988.7
2019-05-10T02:15:15.107Z,988.7
2019-05-10T02:18:15.766Z,988.7
2019-05-10T02:21:15.263Z,988.7
2019-05-10T02:24:15.695Z,988.8
2019-05-10T02:27:15.206Z,988.8
2019-05-10T02:30:15.544Z,988.8
2019-05-10T02:33:15.056Z,988.8
2019-05-10T02:36:15.035Z,988.9
2019-05-10T02:39:15.769Z,988.8
2019-05-10T02:42:15.316Z,988.8
2019-05-10T02:45:15.622Z,988.8
2019-05-10T02:48:15.234Z,988.7
2019-05-10T02:51:15.545Z,988.7
2019-05-10T02:54:15.213Z,988.8
2019-05-10T02:57:15.848Z,988.8
2019-05-10T03:00:15.588Z,988.9
2019-05-10T03:03:15.415Z,988.9
2019-05-10T03:06:15.151Z,989.0
2019-05-10T03:09:15.115Z,989.0
2019-05-10T03:12:15.047Z,989.0
2019-05-10T03:15:15.265Z,989.0
2019-05-10T03:18:15.789Z,989.0
2019-05-10T03:21:14.938Z,989.0
2019-05-10T03:24:14.991Z,989.0
2019-05-10T03:27:14.941Z,989.0
2019-05-10T03:30:15.493Z,989.0
2019-05-10T03:33:15.171Z,989.0
2019-05-10T03:36:15.880Z,989.0
2019-05-10T03:39:15.668Z,989.0
2019-05-10T03:42:15.725Z,989.0
2019-05-10T03:45:15.074Z,989.1
2019-05-10T03:48:15.679Z,989.1
2019-05-10T03:51:15.127Z,989.2
2019-05-10T03:54:14.911Z,989.2
2019-05-10T03:57:15.781Z,989.2
2019-05-10T04:00:16.496Z,989.2
2019-05-10T04:03:15.108Z,989.2
2019-05-10T04:06:15.737Z,989.2
2019-05-10T04:09:15.273Z,989.2
2019-05-10T04:12:15.839Z,989.2
2019-05-10T04:15:15.485Z,989.3
2019-05-10T04:18:15.224Z,989.3
2019-05-10T04:21:15.030Z,989.4
2019-05-10T04:24:15.463Z,989.4
2019-05-10T04:27:32.985Z,989.5
2019-05-10T04:30:15.241Z,989.4
2019-05-10T04:33:16.595Z,989.5
2019-05-10T04:36:38.318Z,989.5
2019-05-10T04:39:15.763Z,989.5
2019-05-10T04:42:15.370Z,989.5
2019-05-10T04:45:14.847Z,989.6
2019-05-10T04:48:15.728Z,989.6
2019-05-10T04:51:15.472Z,989.6
2019-05-10T04:54:15.281Z,989.6
2019-05-10T04:57:15.865Z,989.7
2019-05-10T05:00:15.639Z,989.7
2019-05-10T05:03:15.008Z,989.7
2019-05-10T05:06:15.032Z,989.7
2019-05-10T05:09:15.595Z,989.7
2019-05-10T05:12:15.762Z,989.7
2019-05-10T05:15:15.472Z,989.7
2019-05-10T05:18:20.343Z,989.7
2019-05-10T05:21:15.253Z,989.7
2019-05-10T05:24:16.842Z,989.8
2019-05-10T05:27:15.082Z,989.8
2019-05-10T05:30:15.024Z,989.8
2019-05-10T05:33:15.355Z,989.8
2019-05-10T05:36:14.950Z,989.9
2019-05-10T05:39:15.523Z,989.9
2019-05-10T05:42:15.059Z,989.9
2019-05-10T05:45:14.879Z,989.9
2019-05-10T05:48:15.993Z,990.0
2019-05-10T05:51:15.361Z,990.0
2019-05-10T05:54:20.824Z,990.1
2019-05-10T05:57:15.221Z,990.1
2019-05-10T06:00:15.171Z,990.1
2019-05-10T06:03:19.599Z,990.2
2019-05-10T06:06:21.508Z,990.1
2019-05-10T06:09:15.801Z,990.1
2019-05-10T06:12:15.770Z,990.2
2019-05-10T06:15:15.503Z,990.2
2019-05-10T06:18:14.981Z,990.2
2019-05-10T06:21:18.014Z,990.3
2019-05-10T06:24:15.903Z,990.4
2019-05-10T06:27:15.778Z,990.5
2019-05-10T06:30:15.589Z,990.5
2019-05-10T06:33:15.201Z,990.5
2019-05-10T06:36:15.216Z,990.5
2019-05-10T06:39:15.977Z,990.5
2019-05-10T06:42:15.560Z,990.6
2019-05-10T06:45:16.371Z,990.6
2019-05-10T06:48:26.053Z,990.5
2019-05-10T06:51:15.489Z,990.6
2019-05-10T06:54:15.152Z,990.5
2019-05-10T06:57:17.381Z,990.5
2019-05-10T07:00:15.185Z,990.6
2019-05-10T07:03:15.832Z,990.7
2019-05-10T07:06:15.517Z,990.7
2019-05-10T07:09:15.149Z,990.7
2019-05-10T07:12:17.913Z,990.7
2019-05-10T07:15:14.982Z,990.7
2019-05-10T07:18:16.791Z,990.7
2019-05-10T07:21:15.567Z,990.7
2019-05-10T07:24:18.318Z,990.7
2019-05-10T07:27:15.119Z,990.6
2019-05-10T07:30:15.452Z,990.7
2019-05-10T07:33:15.368Z,990.7
2019-05-10T07:36:20.495Z,990.7
2019-05-10T07:39:14.972Z,990.8
2019-05-10T07:42:15.862Z,990.7
2019-05-10T07:45:18.857Z,990.8
2019-05-10T07:48:14.874Z,990.9
2019-05-10T07:51:15.910Z,990.9
2019-05-10T07:54:15.845Z,990.9
2019-05-10T07:57:18.775Z,990.9
2019-05-10T08:00:15.709Z,991.0
2019-05-10T08:03:17.720Z,991.1
2019-05-10T08:06:15.857Z,991.1
2019-05-10T08:09:15.875Z,991.1
2019-05-10T08:12:15.282Z,991.1
2019-05-10T08:15:15.369Z,991.1
2019-05-10T08:18:23.436Z,991.1
2019-05-10T08:21:21.636Z,991.1
2019-05-10T08:24:16.721Z,991.0
2019-05-10T08:27:15.804Z,991.1
2019-05-10T08:30:25.206Z,991.2
2019-05-10T08:33:15.559Z,991.0
2019-05-10T08:36:15.136Z,991.1
2019-05-10T08:39:15.358Z,991.1
2019-05-10T08:42:34.288Z,991.2
2019-05-10T08:45:15.815Z,991.2
2019-05-10T08:48:15.716Z,991.1
2019-05-10T08:51:15.467Z,991.2
2019-05-10T08:54:15.588Z,991.3
2019-05-10T08:57:18.582Z,991.2
2019-05-10T09:00:15.561Z,991.2
2019-05-10T09:03:18.510Z,991.2
2019-05-10T09:06:16.668Z,991.2
2019-05-10T09:09:15.312Z,991.3
2019-05-10T09:12:15.430Z,991.3
2019-05-10T09:15:15.176Z,991.3
2019-05-10T09:18:15.405Z,991.4
2019-05-10T09:21:15.492Z,991.4
2019-05-10T09:24:15.398Z,991.4
2019-05-10T09:27:15.026Z,991.4
2019-05-10T09:30:18.484Z,991.4
2019-05-10T09:33:15.663Z,991.5
2019-05-10T09:36:15.199Z,991.5
2019-05-10T09:39:21.447Z,991.5
2019-05-10T09:42:25.044Z,991.5
2019-05-10T09:45:15.874Z,991.6
2019-05-10T09:48:15.813Z,991.5
2019-05-10T09:51:19.079Z,991.5
2019-05-10T09:54:15.514Z,991.6
2019-05-10T09:57:17.426Z,991.7
2019-05-10T10:00:17.378Z,991.7
2019-05-10T10:03:15.685Z,991.6
2019-05-10T10:06:14.987Z,991.6
2019-05-10T10:09:17.195Z,991.7
2019-05-10T10:12:17.514Z,991.7
2019-05-10T10:15:25.228Z,991.7
2019-05-10T10:18:21.231Z,991.6
2019-05-10T10:21:18.920Z,991.6
2019-05-10T10:24:19.524Z,991.5
2019-05-10T10:27:17.104Z,991.6
2019-05-10T10:30:21.157Z,991.5
2019-05-10T10:33:20.945Z,991.5
2019-05-10T10:36:15.468Z,991.6
2019-05-10T10:39:17.007Z,991.5
2019-05-10T10:42:17.697Z,991.6
2019-05-10T10:45:17.356Z,991.6
2019-05-10T10:48:17.724Z,991.5
2019-05-10T10:51:18.050Z,991.6
2019-05-10T10:54:17.465Z,991.6
2019-05-10T10:57:15.189Z,991.6
2019-05-10T11:00:20.420Z,991.6
2019-05-10T11:03:14.876Z,991.5
2019-05-10T11:06:15.853Z,991.5
2019-05-10T11:09:15.495Z,991.5
2019-05-10T11:12:23.991Z,991.5
2019-05-10T11:15:16.424Z,991.3
2019-05-10T11:18:15.124Z,991.3
2019-05-10T11:21:15.381Z,991.3
2019-05-10T11:24:18.205Z,991.3
2019-05-10T11:27:17.356Z,991.3
2019-05-10T11:30:15.492Z,991.3
2019-05-10T11:33:25.859Z,991.2
2019-05-10T11:36:15.002Z,991.2
2019-05-10T11:39:25.293Z,991.3
2019-05-10T11:42:15.683Z,991.3
2019-05-10T11:45:15.270Z,991.2
2019-05-10T11:48:15.235Z,991.2
2019-05-10T11:51:17.183Z,991.2
2019-05-10T11:54:15.183Z,991.2
2019-05-10T11:57:15.443Z,991.3
2019-05-10T12:00:28.203Z,991.3
2019-05-10T12:03:18.568Z,991.3
2019-05-10T12:06:15.216Z,991.3
2019-05-10T12:09:15.462Z,991.4
2019-05-10T12:12:15.289Z,991.3
2019-05-10T12:15:15.144Z,991.3
2019-05-10T12:18:15.480Z,991.3
2019-05-10T12:21:15.392Z,991.3
2019-05-10T12:24:26.080Z,991.4
2019-05-10T12:27:25.262Z,991.3
2019-05-10T12:30:16.133Z,991.2
2019-05-10T12:33:24.091Z,991.3
2019-05-10T12:36:23.656Z,991.2
2019-05-10T12:39:15.930Z,991.3
2019-05-10T12:42:15.438Z,991.3
2019-05-10T12:45:15.004Z,991.3
2019-05-10T12:48:15.724Z,991.3
2019-05-10T12:51:16.114Z,991.3
2019-05-10T12:54:18.430Z,991.4
2019-05-10T12:57:15.805Z,991.4
2019-05-10T13:00:16.090Z,991.4
2019-05-10T13:03:19.016Z,991.4
2019-05-10T13:06:15.206Z,991.4
2019-05-10T13:09:15.516Z,991.4
2019-05-10T13:12:15.730Z,991.3
2019-05-10T13:15:15.492Z,991.3
2019-05-10T13:18:15.073Z,991.3
2019-05-10T13:21:20.855Z,991.4
2019-05-10T13:24:15.813Z,991.4
2019-05-10T13:27:15.556Z,991.3
2019-05-10T13:30:15.220Z,991.3
2019-05-10T13:33:27.909Z,991.3
2019-05-10T13:36:14.967Z,991.4
2019-05-10T13:39:19.174Z,991.4
2019-05-10T13:42:15.431Z,991.4
2019-05-10T13:45:15.057Z,991.3
2019-05-10T13:48:15.104Z,991.3
2019-05-10T13:51:14.998Z,991.3
2019-05-10T13:54:15.241Z,991.3
2019-05-10T13:57:15.467Z,991.3
2019-05-10T14:00:15.439Z,991.3
2019-05-10T14:03:15.494Z,991.3
2019-05-10T14:06:15.600Z,991.4
2019-05-10T14:09:15.359Z,991.4
2019-05-10T14:12:22.403Z,991.3
2019-05-10T14:15:15.604Z,991.3
2019-05-10T14:18:15.321Z,991.3
2019-05-10T14:21:15.136Z,991.3
2019-05-10T14:24:15.747Z,991.3
2019-05-10T14:27:15.182Z,991.4
2019-05-10T14:30:16.217Z,991.3
2019-05-10T14:33:17.289Z,991.3
2019-05-10T14:36:14.942Z,991.2
2019-05-10T14:39:15.487Z,991.2
2019-05-10T14:42:15.158Z,991.3
2019-05-10T14:45:15.648Z,991.2
2019-05-10T14:48:15.337Z,991.2
2019-05-10T14:51:15.857Z,991.2
2019-05-10T14:54:18.163Z,991.2
2019-05-10T14:57:15.299Z,991.3
2019-05-10T15:00:15.700Z,991.2
2019-05-10T15:03:15.725Z,991.2
2019-05-10T15:06:15.027Z,991.3
2019-05-10T15:09:21.752Z,991.3
2019-05-10T15:12:19.711Z,991.3
2019-05-10T15:15:15.268Z,991.4
2019-05-10T15:18:15.293Z,991.4
2019-05-10T15:21:15.153Z,991.4
2019-05-10T15:24:14.966Z,991.4
2019-05-10T15:27:16.302Z,991.3
2019-05-10T15:30:15.365Z,991.3
2019-05-10T15:33:15.152Z,991.3
2019-05-10T15:36:15.057Z,991.4
2019-05-10T15:39:15.050Z,991.5
2019-05-10T15:42:14.781Z,991.5
2019-05-10T15:45:19.254Z,991.5
2019-05-10T15:48:15.410Z,991.5
2019-05-10T15:51:16.930Z,991.4
2019-05-10T15:54:14.939Z,991.4
2019-05-10T15:57:20.011Z,991.4
2019-05-10T16:00:15.240Z,991.5
2019-05-10T16:03:14.889Z,991.6
2019-05-10T16:06:15.160Z,991.5
2019-05-10T16:09:17.760Z,991.6
2019-05-10T16:12:15.754Z,991.6
2019-05-10T16:15:19.932Z,991.5
2019-05-10T16:18:15.846Z,991.5
2019-05-10T16:21:16.757Z,991.5
2019-05-10T16:24:25.385Z,991.6
2019-05-10T16:27:15.853Z,991.5
2019-05-10T16:30:18.228Z,991.5
2019-05-10T16:33:15.977Z,991.5
2019-05-10T16:36:15.612Z,991.5
2019-05-10T16:39:15.801Z,991.4
2019-05-10T16:42:15.453Z,991.5
2019-05-10T16:45:15.277Z,991.6
2019-05-10T16:48:15.181Z,991.6
2019-05-10T16:51:15.307Z,991.6
2019-05-10T16:54:24.642Z,991.6
2019-05-10T16:57:15.759Z,991.6
2019-05-10T17:00:15.611Z,991.5
2019-05-10T17:03:18.349Z,991.6
2019-05-10T17:06:15.260Z,991.6
2019-05-10T17:09:18.139Z,991.6
2019-05-10T17:12:15.198Z,991.5
2019-05-10T17:15:15.982Z,991.5
2019-05-10T17:18:17.120Z,991.5
2019-05-10T17:21:15.224Z,991.4
2019-05-10T17:24:18.617Z,991.4
2019-05-10T17:27:15.678Z,991.3
2019-05-10T17:30:15.665Z,991.3
2019-05-10T17:33:15.002Z,991.2
2019-05-10T17:36:19.856Z,991.2
2019-05-10T17:39:15.410Z,991.2
2019-05-10T17:42:15.445Z,991.2
2019-05-10T17:45:14.951Z,991.2
2019-05-10T17:48:15.484Z,991.2
2019-05-10T17:51:15.714Z,991.3
2019-05-10T17:54:15.465Z,991.2
2019-05-10T17:57:16.812Z,991.2
2019-05-10T18:00:15.073Z,991.2
2019-05-10T18:03:15.544Z,991.2
2019-05-10T18:06:23.555Z,991.2
2019-05-10T18:09:15.120Z,991.2
2019-05-10T18:12:19.825Z,991.3
2019-05-10T18:15:15.112Z,991.4
2019-05-10T18:18:15.721Z,991.4
2019-05-10T18:21:21.329Z,991.4
2019-05-10T18:24:15.523Z,991.4
2019-05-10T18:27:15.422Z,991.6
2019-05-10T18:30:15.835Z,991.6
2019-05-10T18:33:15.816Z,991.7
2019-05-10T18:36:17.929Z,991.7
2019-05-10T18:39:17.583Z,991.7
2019-05-10T18:42:18.765Z,991.6
2019-05-10T18:45:15.643Z,991.7
2019-05-10T18:48:15.618Z,991.8
2019-05-10T18:51:17.924Z,991.8
2019-05-10T18:54:15.671Z,991.8
2019-05-10T18:57:18.945Z,991.7
2019-05-10T19:00:17.561Z,991.8
2019-05-10T19:03:15.594Z,991.8
2019-05-10T19:06:15.832Z,991.8
2019-05-10T19:09:15.922Z,991.8
2019-05-10T19:12:18.599Z,991.8
2019-05-10T19:15:15.957Z,991.7
2019-05-10T19:18:17.878Z,991.8
2019-05-10T19:21:15.046Z,991.8
2019-05-10T19:24:15.228Z,991.8
2019-05-10T19:27:15.394Z,991.8
2019-05-10T19:30:20.251Z,991.8
2019-05-10T19:33:14.982Z,991.9
2019-05-10T19:36:15.415Z,991.9
2019-05-10T19:39:15.237Z,992.0
2019-05-10T19:42:15.314Z,992.0
2019-05-10T19:45:19.404Z,992.0
2019-05-10T19:48:15.714Z,992.1
2019-05-10T19:51:15.324Z,992.1
2019-05-10T19:54:19.400Z,992.2
2019-05-10T19:57:18.550Z,992.2
2019-05-10T20:00:15.429Z,992.3
2019-05-10T20:03:15.709Z,992.3
2019-05-10T20:06:15.643Z,992.3
2019-05-10T20:09:15.727Z,992.2
2019-05-10T20:12:15.729Z,992.2
2019-05-10T20:15:15.505Z,992.1
2019-05-10T20:18:15.551Z,992.1
2019-05-10T20:21:15.431Z,992.0
2019-05-10T20:24:15.530Z,992.0
2019-05-10T20:27:15.178Z,992.0
2019-05-10T20:30:15.644Z,992.0
2019-05-10T20:33:15.537Z,992.0
2019-05-10T20:36:15.643Z,992.0
2019-05-10T20:39:15.456Z,992.1
2019-05-10T20:42:16.005Z,992.1
2019-05-10T20:45:15.671Z,992.0
2019-05-10T20:48:15.108Z,992.2
2019-05-10T20:51:15.575Z,992.3
2019-05-10T20:54:15.362Z,992.3
2019-05-10T20:57:15.699Z,992.2
2019-05-10T21:00:15.600Z,992.2
2019-05-10T21:03:15.621Z,992.2
2019-05-10T21:06:15.639Z,992.3
2019-05-10T21:09:15.791Z,992.2
2019-05-10T21:12:15.493Z,992.2
2019-05-10T21:15:15.082Z,992.3
2019-05-10T21:18:15.568Z,992.2
2019-05-10T21:21:15.708Z,992.2
2019-05-10T21:24:15.411Z,992.1
2019-05-10T21:27:15.102Z,992.1
2019-05-10T21:30:15.634Z,992.1
2019-05-10T21:33:15.519Z,992.1
2019-05-10T21:36:15.625Z,992.1
2019-05-10T21:39:15.441Z,992.1
2019-05-10T21:42:15.480Z,992.0
2019-05-10T21:45:15.894Z,992.0
2019-05-10T21:48:16.029Z,991.9
2019-05-10T21:51:15.022Z,991.8
2019-05-10T21:54:15.185Z,991.7
2019-05-10T21:57:15.511Z,991.7
2019-05-10T22:00:15.457Z,991.7
2019-05-10T22:03:15.191Z,991.7
2019-05-10T22:06:15.762Z,991.6
2019-05-10T22:09:15.564Z,991.5
2019-05-10T22:12:15.295Z,991.4
2019-05-10T22:15:15.533Z,991.4
2019-05-10T22:18:15.353Z,991.4
2019-05-10T22:21:15.797Z,991.4
2019-05-10T22:24:15.903Z,991.3
2019-05-10T22:27:15.708Z,991.3
2019-05-10T22:30:15.106Z,991.2
2019-05-10T22:33:15.835Z,991.2
2019-05-10T22:36:15.051Z,991.1
2019-05-10T22:39:15.705Z,991.0
2019-05-10T22:42:15.892Z,991.1
2019-05-10T22:45:16.012Z,991.1
2019-05-10T22:48:14.856Z,991.1
2019-05-10T22:51:15.415Z,991.1
2019-05-10T22:54:16.374Z,991.2
2019-05-10T22:57:15.101Z,991.1
2019-05-10T23:00:15.579Z,991.0
2019-05-10T23:03:15.568Z,990.9
2019-05-10T23:06:15.493Z,990.9
2019-05-10T23:09:24.593Z,990.9
2019-05-10T23:12:15.182Z,990.8
2019-05-10T23:15:15.398Z,990.7
2019-05-10T23:18:15.044Z,990.7
2019-05-10T23:21:15.409Z,990.8
2019-05-10T23:24:15.663Z,990.9
2019-05-10T23:27:15.539Z,990.9
2019-05-10T23:30:15.799Z,990.8
2019-05-10T23:33:14.969Z,990.8
2019-05-10T23:36:18.689Z,990.9
2019-05-10T23:39:22.355Z,990.8
2019-05-10T23:42:16.290Z,990.9
2019-05-10T23:45:15.174Z,990.9
2019-05-10T23:48:15.779Z,990.9
2019-05-10T23:51:18.767Z,991.0
2019-05-10T23:54:16.735Z,991.0
2019-05-10T23:57:19.877Z,991.0
